Carbon, Indiana
Current Conditions -  °F | °C
As of 11:53 PM on Wednesday 26 Nov 2014 (Local Time) from KHUF Reporting Station
Broken Clouds Broken Clouds  
Wind Chill: 20°   Ceiling: 9000
Heat Index: 29°   Visibility: 10mi
Dew Point: 24°   Wind: 9mph
Humidity: 82%   Direction: 360°N
Pressure: 30.13"   Gusts: NA
Location:  39.6°N, 87.12°W
Report Text: KHUF 270453Z 36008KT 10SM BKN090 M02/M04 A3013 RMK AO2 SLP211 T10171044 400221061
Loading
Personal Weather Stations






























Interactive Weather Map New forecast layout! Learn more

10-Day Weather Forecast

Advertisements
Track Severe Weather on mobile